createdAt,value
2023-03-23T15:58:54.522Z,99939.06
2023-03-23T16:01:27.155Z,99937.80
2023-03-23T16:04:03.000Z,99941.43
2023-03-23T16:06:33.573Z,99937.23
2023-03-23T16:09:02.028Z,99940.27
2023-03-23T16:11:33.891Z,99939.23
2023-03-23T16:14:02.360Z,99940.58
2023-03-23T16:16:37.623Z,99940.91
2023-03-23T16:19:06.655Z,99945.64
2023-03-23T16:21:36.426Z,99947.45
2023-03-23T16:24:04.424Z,99947.27
2023-03-23T16:26:34.496Z,99953.48
2023-03-23T16:29:14.540Z,99954.09
2023-03-23T16:31:45.075Z,99949.54
2023-03-23T16:34:13.138Z,99950.90
2023-03-23T16:36:41.007Z,99952.08
2023-03-23T16:39:12.031Z,99956.21
2023-03-23T16:41:41.403Z,99954.14
2023-03-23T16:44:14.626Z,99956.84
2023-03-23T16:46:42.995Z,99955.14
2023-03-23T16:49:11.125Z,99955.36
2023-03-23T16:51:42.998Z,99953.72
2023-03-23T16:54:11.076Z,99953.52
2023-03-23T16:56:49.591Z,99954.85
2023-03-23T16:59:18.023Z,99956.99
2023-03-23T17:01:45.936Z,99959.30
2023-03-23T17:04:15.810Z,99959.14
2023-03-23T17:06:46.774Z,99954.58
2023-03-23T17:09:14.805Z,99951.27
2023-03-23T17:11:44.323Z,99949.00
2023-03-23T17:14:12.981Z,99954.16
2023-03-23T17:16:42.639Z,99960.14
2023-03-23T17:19:16.759Z,99956.55
2023-03-23T17:21:44.769Z,99960.14
2023-03-23T17:24:21.030Z,99958.17
2023-03-23T17:26:49.475Z,99959.86
2023-03-23T17:29:17.714Z,99958.55
2023-03-23T17:31:45.951Z,99957.99
2023-03-23T17:34:13.882Z,99958.19
2023-03-23T17:36:44.525Z,99957.95
2023-03-23T17:39:12.669Z,99958.68
2023-03-23T17:41:40.669Z,99958.26
2023-03-23T17:44:09.903Z,99961.50
2023-03-23T17:46:39.037Z,99964.26
2023-03-23T17:49:07.070Z,99963.10
2023-03-23T17:51:36.571Z,99965.77
2023-03-23T17:54:04.425Z,99963.13
2023-03-23T17:56:38.736Z,99958.36
2023-03-23T17:59:07.929Z,99961.59
2023-03-23T18:01:36.065Z,99962.98
2023-03-23T18:04:06.293Z,99959.84
2023-03-23T18:06:34.572Z,99963.63
2023-03-23T18:09:03.724Z,99961.42
2023-03-23T18:11:32.328Z,99959.13
2023-03-23T18:14:00.606Z,99960.10
2023-03-23T18:16:34.768Z,99960.06
2023-03-23T18:19:04.195Z,99957.74
2023-03-23T18:21:32.680Z,99958.30
2023-03-23T18:24:01.725Z,99960.95
2023-03-23T18:26:29.995Z,99956.65
2023-03-23T18:28:57.795Z,99953.91
2023-03-23T18:31:26.014Z,99955.42
2023-03-23T18:33:55.400Z,99956.80
2023-03-23T18:36:25.690Z,99959.10
2023-03-23T18:38:56.130Z,99955.48
2023-03-23T18:41:24.161Z,99959.21
2023-03-23T18:43:52.222Z,99955.84
2023-03-23T18:46:20.417Z,99952.73
2023-03-23T18:48:48.513Z,99956.08
2023-03-23T18:51:16.448Z,99955.27
2023-03-23T18:53:44.576Z,99954.84
2023-03-23T18:56:14.222Z,99956.26
2023-03-23T18:58:42.095Z,99955.09
2023-03-23T19:01:12.693Z,99951.38
2023-03-23T19:03:41.216Z,99948.64
2023-03-23T19:06:21.241Z,99952.38
2023-03-23T19:08:49.587Z,99949.55
2023-03-23T19:11:17.557Z,99947.95
2023-03-23T19:13:58.182Z,99940.59
2023-03-23T19:16:35.806Z,99941.06
2023-03-23T19:19:08.325Z,99945.90
2023-03-23T19:24:07.111Z,99944.76
2023-03-23T19:26:38.300Z,99948.95
2023-03-23T19:31:38.518Z,99950.60
2023-03-23T19:34:06.726Z,99946.99
2023-03-23T19:36:36.892Z,99948.33
2023-03-23T19:39:06.553Z,99947.76
2023-03-23T19:41:36.266Z,99944.67
2023-03-23T19:44:08.517Z,99942.46
2023-03-23T19:46:36.484Z,99942.19
2023-03-23T19:49:04.443Z,99942.59
2023-03-23T19:51:32.803Z,99938.48
2023-03-23T19:54:01.046Z,99937.36
2023-03-23T19:56:32.594Z,99937.13
2023-03-23T19:59:01.534Z,99936.21
2023-03-23T20:01:29.693Z,99936.04
2023-03-23T20:04:06.965Z,99939.45
2023-03-23T20:06:35.546Z,99936.82
2023-03-23T20:09:06.297Z,99931.17
2023-03-23T20:11:34.579Z,99928.67
2023-03-23T20:14:04.332Z,99934.39
2023-03-23T20:16:32.856Z,99933.40
2023-03-23T20:19:00.836Z,99933.34
2023-03-23T20:21:28.885Z,99933.34
2023-03-23T20:23:57.803Z,99931.91
2023-03-23T20:26:38.654Z,99929.90
2023-03-23T20:29:08.027Z,99926.45
2023-03-23T20:31:38.208Z,99928.97
2023-03-23T20:34:11.079Z,99924.81
2023-03-23T20:36:42.297Z,99925.39
2023-03-23T20:39:21.078Z,99922.82
2023-03-23T20:41:50.983Z,99921.98
2023-03-23T20:44:19.937Z,99918.13
2023-03-23T20:46:49.951Z,99914.96
2023-03-23T20:49:18.542Z,99918.84
2023-03-23T20:51:47.097Z,99915.08
2023-03-23T20:54:15.818Z,99914.80
2023-03-23T20:56:44.469Z,99912.92
2023-03-23T20:59:16.020Z,99907.86
2023-03-23T21:01:44.802Z,99907.90
2023-03-23T21:04:17.321Z,99905.14
2023-03-23T21:06:48.897Z,99904.29
2023-03-23T21:09:17.525Z,99907.17
2023-03-23T21:11:46.366Z,99901.39
2023-03-23T21:14:16.427Z,99900.33
2023-03-23T21:16:45.146Z,99904.21
2023-03-23T21:19:21.388Z,99897.13
2023-03-23T21:21:56.613Z,99898.20
2023-03-23T21:24:28.859Z,99897.86
2023-03-23T21:26:59.932Z,99895.48
2023-03-23T21:29:28.836Z,99898.55
2023-03-23T21:34:30.020Z,99908.02
2023-03-23T21:36:58.233Z,99902.51
2023-03-23T21:39:28.275Z,99902.24
2023-03-23T21:41:56.449Z,99903.38
2023-03-23T21:44:24.427Z,99899.71
2023-03-23T21:46:52.619Z,99900.39
2023-03-23T21:49:20.645Z,99897.52
2023-03-23T21:51:49.654Z,99894.83
2023-03-23T21:54:17.563Z,99895.83
2023-03-23T21:56:46.112Z,99894.47
2023-03-23T21:59:16.932Z,99903.09
2023-03-23T22:01:45.071Z,99902.03
2023-03-23T22:04:13.080Z,99904.41
2023-03-23T22:06:44.665Z,99904.69
2023-03-23T22:09:12.657Z,99902.07
2023-03-23T22:11:40.909Z,99902.15
2023-03-23T22:14:14.410Z,99904.16
2023-03-23T22:16:46.135Z,99904.80
2023-03-23T22:19:14.339Z,99900.11
2023-03-23T22:21:46.607Z,99900.21
2023-03-23T22:24:16.016Z,99905.70
2023-03-23T22:26:45.626Z,99905.84
2023-03-23T22:29:16.898Z,99904.55
2023-03-23T22:31:45.571Z,99904.46
2023-03-23T22:34:13.527Z,99906.86
2023-03-23T22:36:41.597Z,99905.91
2023-03-23T22:39:09.883Z,99901.95
2023-03-23T22:41:40.613Z,99903.90
2023-03-23T22:44:12.910Z,99905.20
2023-03-23T22:46:40.866Z,99908.16
2023-03-23T22:49:11.403Z,99907.86
2023-03-23T22:51:40.235Z,99909.52
2023-03-23T22:54:13.066Z,99907.56
2023-03-23T22:56:41.030Z,99909.39
2023-03-23T22:59:09.934Z,99907.59
2023-03-23T23:01:38.071Z,99911.07
2023-03-23T23:04:06.634Z,99908.03
2023-03-23T23:06:34.612Z,99913.99
2023-03-23T23:09:02.589Z,99907.96
2023-03-23T23:11:31.970Z,99898.98
2023-03-23T23:14:01.341Z,99898.40
2023-03-23T23:16:30.274Z,99899.73
2023-03-23T23:18:58.439Z,99897.52
2023-03-23T23:21:28.971Z,99898.71
2023-03-23T23:23:57.189Z,99895.36
2023-03-23T23:26:25.271Z,99890.23
2023-03-23T23:28:54.067Z,99889.05
2023-03-23T23:31:31.432Z,99892.86
2023-03-23T23:34:00.857Z,99891.24
2023-03-23T23:36:30.108Z,99889.91
2023-03-23T23:38:59.804Z,99892.87
2023-03-23T23:41:34.057Z,99888.54
2023-03-23T23:44:02.498Z,99887.90
2023-03-23T23:46:31.545Z,99889.25
2023-03-23T23:48:59.828Z,99891.56
2023-03-23T23:51:28.818Z,99887.23
2023-03-23T23:53:59.127Z,99887.33
2023-03-23T23:56:28.071Z,99887.83
2023-03-23T23:58:56.627Z,99885.80
